Time;durP1;ratioP1;P1;durP2;ratioP2;P2;SDS_P1;SDS_P2;PMS_P1;PMS_P2;Temp;Humidity;BMP_temperature;BMP_pressure;BME280_temperature;BME280_humidity;BME280_pressure;Samples;Min_cycle;Max_cycle;Signal;HPM_P1;HPM_P2
2022/07/23 00:03:59;;;;;;;4.77;4.30;;;16.10;99.90;;;;;;8333132;28;20233;-66
2022/07/23 00:08:00;;;;;;;5.00;4.60;;;16.10;99.90;;;;;;8337330;28;20182;-65
2022/07/23 00:12:00;;;;;;;5.20;4.70;;;16.10;99.90;;;;;;8339277;28;20240;-66
2022/07/23 00:16:02;;;;;;;5.77;5.27;;;16.00;1.00;;;;;;8331644;28;20192;-66
2022/07/23 00:20:03;;;;;;;5.13;4.73;;;16.00;1.00;;;;;;8330003;28;20195;-66
2022/07/23 00:24:04;;;;;;;5.20;4.70;;;16.00;1.00;;;;;;8348200;28;20183;-63
2022/07/23 00:28:05;;;;;;;6.97;4.77;;;15.90;1.00;;;;;;8331697;28;20213;-65
2022/07/23 00:32:06;;;;;;;6.20;4.67;;;15.80;1.00;;;;;;8328456;28;20182;-64
2022/07/23 00:36:07;;;;;;;5.70;5.20;;;15.80;1.00;;;;;;8347336;28;20178;-64
2022/07/23 00:40:09;;;;;;;5.27;4.77;;;15.80;1.00;;;;;;8347860;28;20496;-66
2022/07/23 00:44:16;;;;;;;5.03;4.30;;;15.70;1.00;;;;;;8337822;28;20228;-64
2022/07/23 00:48:17;;;;;;;5.30;4.17;;;15.70;1.00;;;;;;8338428;28;20225;-65
2022/07/23 00:52:19;;;;;;;5.23;4.73;;;15.70;1.00;;;;;;8329951;28;20281;-63
2022/07/23 00:56:20;;;;;;;4.40;3.80;;;15.60;1.00;;;;;;8338092;28;20189;-64
2022/07/23 01:00:21;;;;;;;5.80;4.57;;;15.60;1.00;;;;;;8329175;28;20187;-65
2022/07/23 01:04:22;;;;;;;5.47;4.60;;;15.50;1.00;;;;;;8328105;28;20207;-64
2022/07/23 01:08:23;;;;;;;4.50;4.10;;;15.50;26.00;;;;;;8339049;28;20219;-65
2022/07/23 01:12:23;;;;;;;5.10;4.67;;;15.40;49.90;;;;;;8339490;28;20253;-64
2022/07/23 01:16:24;;;;;;;5.77;4.77;;;15.30;99.90;;;;;;8329003;28;20276;-66
2022/07/23 01:20:25;;;;;;;4.70;4.30;;;15.30;99.90;;;;;;8338350;28;20234;-66
2022/07/23 01:24:26;;;;;;;4.20;3.90;;;15.30;99.90;;;;;;8334692;28;20206;-65
2022/07/23 01:28:27;;;;;;;5.23;4.73;;;15.20;99.90;;;;;;8329999;28;20182;-64
2022/07/23 01:32:28;;;;;;;4.87;4.33;;;15.10;99.90;;;;;;8355083;28;20182;-67
2022/07/23 01:36:29;;;;;;;4.77;4.37;;;15.10;99.90;;;;;;8360720;28;20216;-64
2022/07/23 01:40:30;;;;;;;5.27;4.73;;;15.00;99.90;;;;;;8324589;28;20196;-64
2022/07/23 01:44:31;;;;;;;5.60;5.10;;;14.90;99.90;;;;;;8322139;28;20225;-63
2022/07/23 01:48:32;;;;;;;5.07;4.67;;;14.90;99.90;;;;;;8330517;28;20189;-66
2022/07/23 01:52:32;;;;;;;4.53;4.13;;;14.80;1.00;;;;;;8354547;28;20209;-64
2022/07/23 01:56:33;;;;;;;5.13;4.63;;;14.80;1.00;;;;;;8333810;28;20198;-63
2022/07/23 02:00:37;;;;;;;5.53;5.03;;;14.80;1.00;;;;;;8332773;28;20300;-67
2022/07/23 02:04:38;;;;;;;5.67;5.10;;;14.80;1.00;;;;;;8322243;28;20296;-65
2022/07/23 02:08:39;;;;;;;5.83;5.23;;;14.80;96.60;;;;;;8332534;28;20187;-65
2022/07/23 02:12:40;;;;;;;5.43;4.93;;;14.90;84.00;;;;;;8338164;28;20178;-64
2022/07/23 02:16:40;;;;;;;5.63;5.13;;;14.90;76.50;;;;;;8328012;28;20206;-66
2022/07/23 02:20:42;;;;;;;5.77;4.90;;;14.90;41.20;;;;;;8329501;28;20201;-65
2022/07/23 02:24:43;;;;;;;5.00;4.57;;;14.80;24.90;;;;;;8330555;28;20499;-65
2022/07/23 02:28:44;;;;;;;5.83;5.17;;;14.80;56.50;;;;;;8360814;28;20218;-64
2022/07/23 02:32:44;;;;;;;5.77;5.27;;;14.80;99.90;;;;;;8358754;28;20200;-65
2022/07/23 02:36:45;;;;;;;6.20;5.60;;;14.80;99.90;;;;;;8327304;28;20198;-65
2022/07/23 02:40:46;;;;;;;6.13;5.33;;;14.70;99.90;;;;;;8318971;28;20186;-64
2022/07/23 02:44:47;;;;;;;5.70;5.20;;;14.60;74.90;;;;;;8329482;28;20209;-66
2022/07/23 02:48:48;;;;;;;5.30;4.80;;;14.50;99.90;;;;;;8328061;28;20181;-66
2022/07/23 02:52:49;;;;;;;6.17;5.57;;;14.40;99.90;;;;;;8345685;28;20240;-74
2022/07/23 02:56:51;;;;;;;5.30;4.90;;;14.40;99.90;;;;;;8325645;28;20281;-66
2022/07/23 03:00:52;;;;;;;6.37;5.77;;;14.50;99.90;;;;;;8339637;28;20200;-65
2022/07/23 03:04:53;;;;;;;5.17;4.67;;;14.50;1.00;;;;;;8336834;28;20281;-65
2022/07/23 03:08:54;;;;;;;5.97;5.37;;;14.50;1.00;;;;;;8334969;28;20251;-66
2022/07/23 03:12:55;;;;;;;5.37;4.87;;;14.50;1.00;;;;;;8341335;28;20212;-65
2022/07/23 03:16:56;;;;;;;5.80;5.20;;;14.40;28.90;;;;;;8327355;28;20190;-65
2022/07/23 03:20:57;;;;;;;5.80;5.30;;;14.40;62.10;;;;;;8319262;28;20190;-64
2022/07/23 03:24:57;;;;;;;5.80;5.30;;;14.50;85.40;;;;;;8331921;28;20209;-65
2022/07/23 03:28:58;;;;;;;5.37;4.87;;;14.60;1.00;;;;;;8345186;28;20185;-65
2022/07/23 03:32:59;;;;;;;6.30;5.70;;;14.60;1.00;;;;;;8333510;28;20179;-65
2022/07/23 03:37:00;;;;;;;5.90;5.30;;;14.70;99.90;;;;;;8329405;28;20190;-65
2022/07/23 03:41:00;;;;;;;6.00;5.03;;;14.80;99.90;;;;;;8350831;28;20189;-68
2022/07/23 03:45:01;;;;;;;5.97;5.37;;;14.90;1.00;;;;;;8328446;28;20232;-65
2022/07/23 03:49:02;;;;;;;5.77;5.27;;;14.90;1.00;;;;;;8339627;28;20185;-68
2022/07/23 03:53:03;;;;;;;6.27;5.67;;;15.00;99.90;;;;;;8342072;28;20221;-66
2022/07/23 03:57:04;;;;;;;6.73;5.90;;;15.40;99.90;;;;;;8335262;28;20190;-65
2022/07/23 04:01:05;;;;;;;6.77;6.13;;;16.00;99.80;;;;;;8346039;28;20265;-65
2022/07/23 04:05:06;;;;;;;6.13;5.30;;;16.90;99.90;;;;;;8335115;28;20251;-65
2022/07/23 04:09:07;;;;;;;6.33;5.40;;;17.70;99.90;;;;;;8356909;28;20182;-65
2022/07/23 04:13:08;;;;;;;6.37;5.17;;;18.40;1.00;;;;;;8334332;28;20182;-67
2022/07/23 04:17:09;;;;;;;9.53;4.97;;;19.10;99.90;;;;;;8331680;28;20187;-65
2022/07/23 04:21:10;;;;;;;4.60;4.20;;;19.60;99.90;;;;;;8324452;28;20209;-65
2022/07/23 04:25:13;;;;;;;5.10;3.90;;;20.20;99.90;;;;;;8331653;28;20248;-64
2022/07/23 04:29:14;;;;;;;4.83;4.43;;;20.70;99.90;;;;;;8330434;28;20295;-64
2022/07/23 04:33:15;;;;;;;5.97;4.60;;;21.30;99.90;;;;;;8358882;28;20304;-64
2022/07/23 04:37:15;;;;;;;4.83;4.33;;;21.60;99.70;;;;;;8327571;28;20192;-64
2022/07/23 04:41:16;;;;;;;6.20;5.13;;;21.60;91.80;;;;;;8331796;28;20202;-66
2022/07/23 04:45:17;;;;;;;5.17;4.70;;;21.40;96.60;;;;;;8332586;28;20229;-65
2022/07/23 04:49:18;;;;;;;5.83;5.33;;;21.30;99.90;;;;;;8342516;28;20183;-65
2022/07/23 04:53:19;;;;;;;9.07;8.17;;;21.20;99.90;;;;;;8324129;28;20268;-65
2022/07/23 04:57:20;;;;;;;9.17;8.37;;;21.30;99.90;;;;;;8323993;28;20187;-69
2022/07/23 05:01:21;;;;;;;7.50;6.80;;;21.60;99.90;;;;;;8327028;28;20225;-66
2022/07/23 05:05:22;;;;;;;8.13;6.50;;;22.10;99.90;;;;;;8339287;28;20206;-63
2022/07/23 05:09:22;;;;;;;6.20;5.20;;;22.80;88.50;;;;;;8329225;28;20265;-62
2022/07/23 05:13:23;;;;;;;6.47;5.20;;;23.70;24.40;;;;;;8332494;28;20186;-63
2022/07/23 05:17:24;;;;;;;5.53;4.63;;;23.90;1.00;;;;;;8335906;28;20186;-64
2022/07/23 05:21:25;;;;;;;4.80;4.40;;;23.90;1.00;;;;;;8331686;28;20185;-64
2022/07/23 05:25:26;;;;;;;5.13;4.53;;;23.90;1.00;;;;;;8344846;28;20210;-63
2022/07/23 05:29:27;;;;;;;5.83;5.17;;;24.00;1.00;;;;;;8332153;28;20209;-62
2022/07/23 05:33:28;;;;;;;5.30;4.80;;;24.00;1.00;;;;;;8342766;28;20257;-63
2022/07/23 05:37:29;;;;;;;5.50;5.00;;;23.90;1.00;;;;;;8324865;28;20186;-63
2022/07/23 05:41:29;;;;;;;5.40;4.90;;;23.80;1.00;;;;;;8336722;28;20183;-62
2022/07/23 05:45:30;;;;;;;7.00;4.97;;;24.00;1.00;;;;;;8337048;28;20202;-62
2022/07/23 05:49:31;;;;;;;5.57;4.40;;;24.20;1.00;;;;;;8322397;28;20265;-63
2022/07/23 05:53:32;;;;;;;5.63;5.00;;;24.20;1.00;;;;;;8324173;28;20213;-63
2022/07/23 05:57:33;;;;;;;8.40;4.77;;;24.50;1.00;;;;;;8329563;28;20194;-62
2022/07/23 06:01:34;;;;;;;4.50;4.03;;;24.80;1.00;;;;;;8355222;28;20192;-62
2022/07/23 06:05:35;;;;;;;5.27;4.77;;;25.20;1.00;;;;;;8322654;28;20213;-67
2022/07/23 06:09:35;;;;;;;6.37;4.50;;;25.40;1.00;;;;;;8323067;28;20258;-63
2022/07/23 06:13:36;;;;;;;5.13;4.63;;;25.30;1.00;;;;;;8322184;28;20189;-66
2022/07/23 06:17:41;;;;;;;5.47;4.97;;;25.30;1.00;;;;;;8329373;28;20197;-63
2022/07/23 06:21:42;;;;;;;6.33;5.07;;;25.30;1.00;;;;;;8325815;28;20596;-64
2022/07/23 06:25:43;;;;;;;7.80;5.17;;;25.30;1.00;;;;;;8356924;28;20205;-63
2022/07/23 06:29:44;;;;;;;7.00;5.37;;;25.20;1.00;;;;;;8336346;28;20272;-64
2022/07/23 06:33:44;;;;;;;5.57;4.97;;;25.00;1.00;;;;;;8323489;28;20183;-61
2022/07/23 06:37:45;;;;;;;5.40;4.87;;;24.80;1.00;;;;;;8317364;28;20194;-65
2022/07/23 06:41:46;;;;;;;5.57;5.07;;;24.70;1.00;;;;;;8329837;28;20221;-63
2022/07/23 06:45:47;;;;;;;5.80;5.30;;;24.50;1.00;;;;;;8322168;28;20233;-62
2022/07/23 06:49:48;;;;;;;5.97;5.27;;;24.30;1.00;;;;;;8341197;28;20178;-63
2022/07/23 06:53:48;;;;;;;6.27;5.67;;;24.20;1.00;;;;;;8327621;28;20210;-64
2022/07/23 06:57:49;;;;;;;6.67;5.93;;;24.20;1.00;;;;;;8339632;28;20185;-64
2022/07/23 07:01:50;;;;;;;14.30;5.67;;;24.20;1.00;;;;;;8338586;28;20190;-62
2022/07/23 07:05:51;;;;;;;7.53;5.37;;;24.30;1.00;;;;;;8315888;28;20210;-68
2022/07/23 07:09:52;;;;;;;7.90;5.80;;;24.60;1.00;;;;;;8324415;28;20193;-66
2022/07/23 07:13:53;;;;;;;7.90;7.13;;;25.00;1.00;;;;;;8356900;28;20208;-63
2022/07/23 07:17:54;;;;;;;8.93;6.63;;;25.30;1.00;;;;;;8338378;28;20259;-66
2022/07/23 07:21:55;;;;;;;10.07;7.07;;;25.50;1.00;;;;;;8325073;28;20232;-66
2022/07/23 07:25:55;;;;;;;7.23;6.27;;;25.70;1.00;;;;;;8332527;28;20205;-64
2022/07/23 07:29:56;;;;;;;9.17;7.47;;;25.80;1.00;;;;;;8336472;28;20182;-66
2022/07/23 07:33:58;;;;;;;8.20;6.67;;;25.80;1.00;;;;;;8319008;28;20506;-65
2022/07/23 07:38:00;;;;;;;7.23;6.17;;;26.00;1.00;;;;;;8318937;28;20194;-63
2022/07/23 07:42:00;;;;;;;9.32;6.90;;;26.20;1.00;;;;;;8340472;28;20189;-64
2022/07/23 07:46:02;;;;;;;8.77;7.20;;;26.50;1.00;;;;;;8337368;28;20597;-65
2022/07/23 07:50:03;;;;;;;8.20;6.80;;;26.60;1.00;;;;;;8335890;28;20186;-66
2022/07/23 07:54:04;;;;;;;7.33;6.63;;;25.90;1.00;;;;;;8340853;28;20240;-64
2022/07/23 07:58:05;;;;;;;9.33;6.57;;;25.30;8.40;;;;;;8348579;28;20182;-68
2022/07/23 08:02:06;;;;;;;7.73;6.93;;;24.90;19.10;;;;;;8330247;28;20212;-66
2022/07/23 08:06:07;;;;;;;7.97;6.97;;;24.80;37.20;;;;;;8344691;28;20309;-68
2022/07/23 08:10:09;;;;;;;11.87;7.83;;;24.80;35.30;;;;;;8358121;28;20182;-65
2022/07/23 08:14:11;;;;;;;9.43;7.07;;;24.50;55.90;;;;;;8324028;28;20268;-68
2022/07/23 08:18:11;;;;;;;7.83;7.13;;;24.50;45.90;;;;;;8324811;28;20182;-67
2022/07/23 08:22:12;;;;;;;7.60;6.77;;;24.40;66.40;;;;;;8321738;28;20418;-69
2022/07/23 08:26:13;;;;;;;7.80;7.00;;;24.50;50.70;;;;;;8325129;28;20241;-67
2022/07/23 08:30:14;;;;;;;8.60;7.20;;;24.70;39.10;;;;;;8357432;28;20186;-69
2022/07/23 08:34:14;;;;;;;8.23;6.77;;;24.80;32.40;;;;;;8340927;28;20193;-66
2022/07/23 08:38:17;;;;;;;9.03;7.03;;;25.10;8.50;;;;;;8347756;28;20200;-66
2022/07/23 08:42:20;;;;;;;7.90;7.03;;;25.50;1.00;;;;;;8338150;28;20336;-64
2022/07/23 08:46:22;;;;;;;8.20;7.03;;;25.70;1.00;;;;;;8330107;28;20216;-61
2022/07/23 08:50:24;;;;;;;7.40;6.70;;;25.80;1.00;;;;;;8337732;28;20209;-65
2022/07/23 08:54:25;;;;;;;9.37;7.70;;;26.00;1.00;;;;;;8322936;28;20566;-63
2022/07/23 08:58:26;;;;;;;8.67;6.53;;;26.10;1.00;;;;;;8345419;28;20385;-65
2022/07/23 09:02:28;;;;;;;7.60;6.27;;;26.40;1.00;;;;;;8329170;28;20187;-63
2022/07/23 09:06:28;;;;;;;12.23;6.90;;;26.70;1.00;;;;;;8339854;28;20292;-61
2022/07/23 09:10:29;;;;;;;8.23;6.55;;;27.20;1.00;;;;;;8329086;28;20197;-68
2022/07/23 09:14:41;;;;;;;6.97;6.28;;;27.70;1.00;;;;;;8338215;28;20197;-66
2022/07/23 09:18:52;;;;;;;7.82;7.05;;;28.10;1.00;;;;;;8329775;28;20182;-62
2022/07/23 09:22:53;;;;;;;10.88;7.70;;;28.40;1.00;;;;;;8341392;28;20193;-59
2022/07/23 09:26:55;;;;;;;7.80;6.95;;;28.60;1.00;;;;;;8307648;28;20237;-59
2022/07/23 09:30:55;;;;;;;9.05;6.88;;;28.00;1.00;;;;;;8323687;28;20257;-64
2022/07/23 09:34:56;;;;;;;8.60;7.18;;;27.60;1.00;;;;;;8339158;28;20181;-63
2022/07/23 09:38:57;;;;;;;9.45;7.50;;;27.00;1.00;;;;;;8342009;28;20193;-63
2022/07/23 09:42:58;;;;;;;9.97;7.93;;;26.30;1.00;;;;;;8307218;28;20233;-62
2022/07/23 09:47:00;;;;;;;9.10;8.03;;;25.60;99.90;;;;;;8322664;28;20248;-65
2022/07/23 09:51:05;;;;;;;8.77;7.87;;;24.70;99.90;;;;;;8335839;28;20419;-63
2022/07/23 09:55:06;;;;;;;8.50;7.80;;;24.20;99.90;;;;;;8343981;28;20208;-65
2022/07/23 09:59:11;;;;;;;8.67;7.77;;;24.20;99.90;;;;;;8343232;28;20182;-66
2022/07/23 10:03:13;;;;;;;9.77;8.77;;;24.00;99.90;;;;;;8344519;28;20183;-66
2022/07/23 10:07:17;;;;;;;9.53;8.57;;;23.80;99.90;;;;;;8319923;28;20288;-66
2022/07/23 10:11:18;;;;;;;9.07;8.27;;;23.60;99.90;;;;;;8349530;28;20185;-65
2022/07/23 10:15:19;;;;;;;8.17;7.37;;;23.60;99.90;;;;;;8332356;28;20230;-66
2022/07/23 10:19:21;;;;;;;9.17;7.57;;;23.70;99.90;;;;;;8326307;28;20190;-68
2022/07/23 10:23:35;;;;;;;10.67;7.37;;;24.00;99.90;;;;;;8324604;28;20280;-64
2022/07/23 10:27:44;;;;;;;9.13;8.30;;;24.70;99.90;;;;;;8339251;28;20207;-64
2022/07/23 10:32:04;;;;;;;10.30;7.97;;;24.90;99.90;;;;;;8347542;28;20178;-60
2022/07/23 10:36:19;;;;;;;8.63;7.73;;;24.80;99.90;;;;;;8334655;28;20190;-68
2022/07/23 10:40:23;;;;;;;7.63;6.93;;;24.80;99.90;;;;;;8321621;28;20252;-69
2022/07/23 10:44:25;;;;;;;8.37;7.50;;;25.30;99.90;;;;;;8324570;28;20190;-67
2022/07/23 10:48:26;;;;;;;6.57;5.90;;;26.20;35.30;;;;;;8326459;28;20192;-65
2022/07/23 10:52:27;;;;;;;10.17;7.40;;;26.50;20.90;;;;;;8325318;28;20297;-65
2022/07/23 10:56:50;;;;;;;10.32;7.65;;;26.60;1.00;;;;;;8341775;28;20206;-64
2022/07/23 11:00:50;;;;;;;9.10;7.55;;;27.40;1.00;;;;;;8335664;28;20182;-66
2022/07/23 11:04:52;;;;;;;8.50;7.10;;;27.70;1.00;;;;;;8322879;28;20283;-64
2022/07/23 11:09:28;;;;;;;7.95;7.25;;;28.00;1.00;;;;;;8326510;28;20232;-64
2022/07/23 11:13:32;;;;;;;7.75;7.05;;;27.50;1.00;;;;;;8354628;28;20209;-62
2022/07/23 11:17:36;;;;;;;8.18;7.47;;;27.30;1.00;;;;;;8309425;28;20189;-65
2022/07/23 11:21:37;;;;;;;8.77;7.85;;;27.70;1.00;;;;;;8337196;28;20190;-65
2022/07/23 11:25:38;;;;;;;9.90;7.57;;;27.80;1.00;;;;;;8349334;28;20205;-65
2022/07/23 11:29:41;;;;;;;8.38;7.65;;;27.70;1.00;;;;;;8342094;28;20190;-64
2022/07/23 11:33:42;;;;;;;11.20;7.82;;;27.20;1.00;;;;;;8346636;28;20246;-65
2022/07/23 11:37:45;;;;;;;9.57;7.95;;;27.10;1.00;;;;;;8330694;28;20280;-66
2022/07/23 11:41:46;;;;;;;9.23;8.33;;;27.10;1.00;;;;;;8359933;28;20189;-64
2022/07/23 11:45:52;;;;;;;8.98;8.18;;;26.80;1.00;;;;;;8356425;28;20216;-63
2022/07/23 11:49:58;;;;;;;9.10;8.20;;;27.10;1.00;;;;;;8325878;28;20186;-63
2022/07/23 11:54:06;;;;;;;9.53;7.77;;;26.60;1.00;;;;;;8361043;28;20224;-64
2022/07/23 11:58:07;;;;;;;10.17;8.00;;;26.50;1.00;;;;;;8327184;28;20190;-65
2022/07/23 12:02:08;;;;;;;8.20;7.50;;;27.10;1.00;;;;;;8323091;28;20276;-62
2022/07/23 12:06:09;;;;;;;8.17;7.20;;;26.60;1.00;;;;;;8336167;28;20209;-64
2022/07/23 12:10:15;;;;;;;8.10;7.30;;;26.10;1.00;;;;;;8332126;28;20243;-65
2022/07/23 12:14:16;;;;;;;8.83;7.93;;;25.50;1.00;;;;;;8330054;28;20220;-65
2022/07/23 12:18:20;;;;;;;9.03;7.57;;;25.20;90.00;;;;;;8348607;28;20196;-64
2022/07/23 12:22:23;;;;;;;9.90;8.83;;;25.20;78.50;;;;;;8332937;28;20186;-64
2022/07/23 12:26:25;;;;;;;9.70;8.70;;;24.90;99.90;;;;;;8346039;28;20265;-65
2022/07/23 12:30:41;;;;;;;9.47;8.57;;;24.90;99.90;;;;;;8329380;28;20186;-66
2022/07/23 12:34:42;;;;;;;8.23;7.40;;;25.00;99.90;;;;;;8332208;28;20189;-67
2022/07/23 12:38:49;;;;;;;8.80;8.00;;;25.10;99.90;;;;;;8340160;28;20182;-65
2022/07/23 12:42:54;;;;;;;8.87;8.13;;;25.50;73.50;;;;;;8338806;28;20197;-62
2022/07/23 12:46:55;;;;;;;9.20;7.97;;;25.70;24.60;;;;;;8337921;28;20214;-63
2022/07/23 12:50:58;;;;;;;8.90;8.10;;;25.80;25.40;;;;;;8320857;28;20212;-63
2022/07/23 12:54:59;;;;;;;9.70;8.90;;;25.90;22.90;;;;;;8330230;28;20209;-64
2022/07/23 12:59:03;;;;;;;8.70;7.90;;;25.90;36.30;;;;;;8327210;28;20186;-65
2022/07/23 13:03:04;;;;;;;8.33;7.53;;;25.80;32.20;;;;;;8320219;28;20189;-68
2022/07/23 13:07:05;;;;;;;8.60;7.80;;;25.70;25.50;;;;;;8328958;28;20257;-65
2022/07/23 13:11:06;;;;;;;7.53;6.73;;;26.00;5.70;;;;;;8338102;28;20193;-65
2022/07/23 13:15:07;;;;;;;6.73;6.13;;;26.00;9.30;;;;;;8323600;28;20190;-67
2022/07/23 13:19:09;;;;;;;7.50;6.77;;;26.10;22.50;;;;;;8354346;28;20197;-63
2022/07/23 13:23:10;;;;;;;6.83;6.20;;;26.40;1.00;;;;;;8323870;28;20243;-64
2022/07/23 13:27:10;;;;;;;7.87;7.07;;;26.50;1.00;;;;;;8325701;28;20225;-66
2022/07/23 13:31:11;;;;;;;11.60;7.30;;;26.00;1.00;;;;;;8338203;28;20190;-66
2022/07/23 13:35:12;;;;;;;7.90;7.20;;;25.50;11.20;;;;;;8350604;28;20221;-65
2022/07/23 13:39:13;;;;;;;7.17;6.47;;;25.20;26.50;;;;;;8338140;28;20196;-67
2022/07/23 13:43:16;;;;;;;7.60;6.17;;;25.50;34.90;;;;;;8319547;28;20293;-64
2022/07/23 13:47:17;;;;;;;7.53;6.73;;;25.80;27.10;;;;;;8324563;28;20214;-63
2022/07/23 13:51:18;;;;;;;6.67;6.17;;;26.10;1.00;;;;;;8337198;28;20295;-62
2022/07/23 13:55:19;;;;;;;7.50;6.90;;;26.20;1.00;;;;;;8318097;28;20300;-65
2022/07/23 13:59:20;;;;;;;7.23;6.60;;;26.00;1.00;;;;;;8331121;28;20275;-62
2022/07/23 14:03:23;;;;;;;7.73;7.03;;;25.90;1.00;;;;;;8323526;28;20194;-64
2022/07/23 14:07:24;;;;;;;6.40;5.80;;;25.70;1.00;;;;;;8338350;28;20216;-62
2022/07/23 14:11:24;;;;;;;7.77;6.90;;;26.00;1.00;;;;;;8341220;28;20217;-64
2022/07/23 14:15:28;;;;;;;6.73;6.13;;;26.00;1.00;;;;;;8319977;28;20206;-67
2022/07/23 14:19:29;;;;;;;6.77;6.17;;;25.90;1.00;;;;;;8319106;28;20297;-68
2022/07/23 14:23:30;;;;;;;7.80;6.77;;;25.80;1.00;;;;;;8318424;28;20232;-65
2022/07/23 14:27:31;;;;;;;7.53;5.87;;;25.40;1.00;;;;;;8342075;28;20217;-65
2022/07/23 14:31:32;;;;;;;6.73;6.13;;;25.10;1.00;;;;;;8337828;28;20189;-64
2022/07/23 14:35:32;;;;;;;7.53;6.70;;;25.10;1.00;;;;;;8345194;28;20198;-65
2022/07/23 14:39:33;;;;;;;6.77;6.17;;;25.00;1.00;;;;;;8350109;28;20328;-65
2022/07/23 14:43:34;;;;;;;6.87;5.73;;;25.00;1.00;;;;;;8333479;28;20182;-64
2022/07/23 14:47:36;;;;;;;6.37;5.77;;;25.00;1.00;;;;;;8341331;28;20217;-65
2022/07/23 14:51:36;;;;;;;5.90;5.37;;;24.80;1.00;;;;;;8320518;28;20209;-66
2022/07/23 14:55:37;;;;;;;6.30;4.67;;;24.40;14.60;;;;;;8355649;28;20189;-64
2022/07/23 14:59:38;;;;;;;5.70;5.20;;;24.00;35.20;;;;;;8319081;28;20181;-64
2022/07/23 15:03:39;;;;;;;5.40;4.90;;;23.80;60.90;;;;;;8334557;28;20189;-64
2022/07/23 15:07:40;;;;;;;5.50;4.87;;;23.50;97.50;;;;;;8329865;28;20226;-64
2022/07/23 15:11:41;;;;;;;6.00;4.93;;;23.40;99.90;;;;;;8339128;28;20213;-64
2022/07/23 15:15:42;;;;;;;5.43;5.03;;;23.20;99.90;;;;;;8317770;28;20217;-66
2022/07/23 15:19:43;;;;;;;5.77;5.27;;;23.30;99.90;;;;;;8332910;28;20191;-64
2022/07/23 15:23:43;;;;;;;5.47;4.87;;;23.40;99.90;;;;;;8320277;28;20194;-64
2022/07/23 15:27:44;;;;;;;4.97;4.47;;;23.80;99.90;;;;;;8321474;28;20297;-64
2022/07/23 15:31:46;;;;;;;6.20;5.10;;;23.90;99.90;;;;;;8329016;28;20190;-66
2022/07/23 15:35:46;;;;;;;5.63;4.83;;;24.00;92.90;;;;;;8330966;28;20189;-65
2022/07/23 15:39:47;;;;;;;5.23;4.67;;;23.90;91.40;;;;;;8334854;28;20205;-65
2022/07/23 15:43:48;;;;;;;5.77;5.17;;;23.70;97.50;;;;;;8321770;28;20231;-64
2022/07/23 15:47:49;;;;;;;6.97;5.57;;;23.60;88.60;;;;;;8314368;28;20233;-64
2022/07/23 15:51:50;;;;;;;6.37;5.77;;;23.60;99.90;;;;;;8333440;28;20206;-67
2022/07/23 15:55:51;;;;;;;5.30;4.80;;;23.70;85.40;;;;;;8323282;28;20190;-65
2022/07/23 15:59:52;;;;;;;5.40;4.90;;;23.90;69.40;;;;;;8321203;28;20193;-64
2022/07/23 16:03:53;;;;;;;6.50;5.23;;;24.30;38.40;;;;;;8345952;28;20185;-65
2022/07/23 16:07:53;;;;;;;6.10;5.43;;;24.50;34.70;;;;;;8327561;28;20221;-65
2022/07/23 16:11:55;;;;;;;6.90;6.03;;;24.30;19.90;;;;;;8336197;28;20194;-64
2022/07/23 16:15:55;;;;;;;7.40;6.70;;;24.30;28.90;;;;;;8322427;28;20248;-65
2022/07/23 16:19:56;;;;;;;8.07;7.10;;;24.30;17.60;;;;;;8327764;28;20186;-65
2022/07/23 16:23:57;;;;;;;8.73;7.40;;;24.20;10.00;;;;;;8331408;28;20210;-65
2022/07/23 16:27:58;;;;;;;9.07;8.27;;;24.00;23.30;;;;;;8322277;28;20250;-65
2022/07/23 16:31:59;;;;;;;8.40;7.70;;;24.10;22.60;;;;;;8339756;28;20205;-65
2022/07/23 16:36:00;;;;;;;8.37;6.97;;;23.90;31.00;;;;;;8326757;28;20190;-64
2022/07/23 16:40:01;;;;;;;7.67;6.83;;;23.80;44.70;;;;;;8343980;28;20288;-65
2022/07/23 16:44:02;;;;;;;7.10;6.40;;;23.70;38.00;;;;;;8326725;28;20197;-64
2022/07/23 16:48:04;;;;;;;7.13;6.53;;;23.70;45.90;;;;;;8323224;28;20280;-63
2022/07/23 16:52:05;;;;;;;6.67;6.03;;;23.60;36.70;;;;;;8327686;28;20209;-63
2022/07/23 16:56:06;;;;;;;7.70;6.60;;;23.40;39.40;;;;;;8320932;28;20228;-65
2022/07/23 17:00:10;;;;;;;6.50;5.90;;;23.40;86.10;;;;;;8340270;28;20219;-67
2022/07/23 17:04:11;;;;;;;7.07;6.20;;;23.50;37.30;;;;;;8337617;28;20206;-65
2022/07/23 17:08:12;;;;;;;6.50;5.90;;;23.60;39.90;;;;;;8356109;28;20217;-64
2022/07/23 17:12:13;;;;;;;6.93;6.33;;;23.40;37.50;;;;;;8327481;28;20193;-65
2022/07/23 17:16:16;;;;;;;6.63;5.83;;;23.40;49.70;;;;;;8322361;28;20194;-64
2022/07/23 17:20:17;;;;;;;6.37;5.77;;;23.50;52.70;;;;;;8345908;28;20221;-64
2022/07/23 17:24:18;;;;;;;6.93;6.23;;;23.50;38.70;;;;;;8341711;28;20281;-64
2022/07/23 17:28:19;;;;;;;6.73;6.10;;;23.40;51.90;;;;;;8343591;28;20209;-65
2022/07/23 17:32:19;;;;;;;6.20;5.60;;;23.30;45.70;;;;;;8331479;28;20198;-63
2022/07/23 17:36:21;;;;;;;5.37;4.80;;;23.50;16.80;;;;;;8323094;28;20210;-64
2022/07/23 17:40:23;;;;;;;5.87;4.93;;;23.60;4.20;;;;;;8334850;28;20272;-65
2022/07/23 17:44:24;;;;;;;5.90;5.40;;;23.50;1.00;;;;;;8346418;28;20182;-64
2022/07/23 17:48:25;;;;;;;6.10;5.50;;;23.10;15.00;;;;;;8333521;28;20360;-65
2022/07/23 17:52:26;;;;;;;5.40;4.90;;;22.80;60.70;;;;;;8360722;28;20218;-65
2022/07/23 17:56:26;;;;;;;5.73;5.13;;;22.90;40.60;;;;;;8324087;28;20186;-64
2022/07/23 18:00:33;;;;;;;5.43;4.90;;;23.30;21.50;;;;;;8329183;28;20190;-67
2022/07/23 18:04:34;;;;;;;5.30;4.80;;;23.50;12.80;;;;;;8327917;28;20197;-66
2022/07/23 18:08:35;;;;;;;6.37;4.97;;;23.30;21.60;;;;;;8341980;28;20272;-66
2022/07/23 18:12:36;;;;;;;5.63;5.13;;;23.40;25.30;;;;;;8326230;28;20200;-65
2022/07/23 18:16:37;;;;;;;4.70;4.30;;;23.70;10.60;;;;;;8346254;28;20192;-64
2022/07/23 18:20:38;;;;;;;5.47;4.97;;;23.80;1.00;;;;;;8344322;28;20193;-66
2022/07/23 18:24:39;;;;;;;5.30;4.80;;;23.70;1.00;;;;;;8349389;28;20186;-64
2022/07/23 18:28:40;;;;;;;4.93;4.53;;;23.30;1.00;;;;;;8357912;28;20260;-65
2022/07/23 18:32:41;;;;;;;4.50;4.07;;;22.90;22.10;;;;;;8331215;28;20208;-64
2022/07/23 18:36:42;;;;;;;4.50;4.10;;;22.80;31.40;;;;;;8324299;28;20189;-64
2022/07/23 18:40:43;;;;;;;5.03;4.53;;;22.70;33.60;;;;;;8331428;28;20185;-63
2022/07/23 18:44:44;;;;;;;5.17;4.30;;;22.70;39.00;;;;;;8325510;28;20201;-63
2022/07/23 18:48:45;;;;;;;7.33;3.93;;;22.40;53.50;;;;;;8353522;28;20186;-64
2022/07/23 18:52:46;;;;;;;4.77;4.23;;;22.10;90.50;;;;;;8330843;28;20218;-65
2022/07/23 18:56:47;;;;;;;4.13;3.73;;;21.80;91.30;;;;;;8331490;28;20247;-65
2022/07/23 19:00:48;;;;;;;4.70;3.77;;;21.50;85.10;;;;;;8323698;28;20217;-66
2022/07/23 19:04:49;;;;;;;4.50;4.10;;;21.40;86.60;;;;;;8324254;28;20197;-64
2022/07/23 19:08:50;;;;;;;5.27;3.77;;;21.20;82.90;;;;;;8324376;28;20187;-65
2022/07/23 19:12:51;;;;;;;4.47;3.60;;;21.00;78.20;;;;;;8326178;28;20204;-63
2022/07/23 19:16:52;;;;;;;3.97;3.57;;;20.90;89.50;;;;;;8346542;28;20253;-64
2022/07/23 19:20:52;;;;;;;4.60;4.00;;;20.70;99.90;;;;;;8324973;28;20193;-65
2022/07/23 19:24:54;;;;;;;4.73;3.80;;;20.50;99.90;;;;;;8327848;28;20222;-64
2022/07/23 19:28:55;;;;;;;4.27;3.87;;;20.20;99.90;;;;;;8327313;28;20190;-64
2022/07/23 19:32:55;;;;;;;4.00;3.60;;;20.10;99.90;;;;;;8327771;28;20310;-65
2022/07/23 19:36:57;;;;;;;6.87;4.03;;;19.90;99.90;;;;;;8328878;28;20190;-64
2022/07/23 19:40:58;;;;;;;6.23;4.10;;;19.70;99.90;;;;;;8331403;28;20241;-64
2022/07/23 19:44:59;;;;;;;4.60;4.10;;;19.60;99.90;;;;;;8347270;28;20235;-63
2022/07/23 19:49:02;;;;;;;4.20;3.53;;;19.50;99.90;;;;;;8334805;28;20179;-65
2022/07/23 19:53:03;;;;;;;4.23;3.83;;;19.40;99.90;;;;;;8332433;28;20296;-63
2022/07/23 19:57:05;;;;;;;3.67;3.27;;;19.20;99.90;;;;;;8343521;28;20196;-64
2022/07/23 20:01:06;;;;;;;4.10;3.70;;;18.90;99.90;;;;;;8335152;28;20206;-63
2022/07/23 20:05:09;;;;;;;4.10;3.70;;;18.80;99.90;;;;;;8347367;28;20192;-63
2022/07/23 20:09:10;;;;;;;4.53;4.10;;;18.60;99.90;;;;;;8345579;28;20182;-64
2022/07/23 20:13:12;;;;;;;5.30;4.33;;;18.50;99.90;;;;;;8334667;28;20197;-64
2022/07/23 20:17:13;;;;;;;4.67;4.23;;;18.40;99.90;;;;;;8365646;28;20177;-66
2022/07/23 20:21:14;;;;;;;4.23;3.83;;;18.20;99.90;;;;;;8330058;28;20227;-65
2022/07/23 20:25:14;;;;;;;4.30;3.60;;;18.00;99.90;;;;;;8331705;28;20359;-64
2022/07/23 20:29:17;;;;;;;4.53;4.13;;;17.80;1.00;;;;;;8331679;28;20259;-65
2022/07/23 20:33:21;;;;;;;4.70;4.30;;;17.70;1.00;;;;;;8328113;28;20483;-64
2022/07/23 20:37:22;;;;;;;4.67;3.57;;;17.60;1.00;;;;;;8330505;28;20197;-65
2022/07/23 20:41:23;;;;;;;3.90;3.50;;;17.50;1.00;;;;;;8327817;28;20185;-63
2022/07/23 20:45:24;;;;;;;3.63;3.33;;;17.40;1.00;;;;;;8348264;28;20208;-65
2022/07/23 20:49:25;;;;;;;4.10;3.70;;;17.20;1.00;;;;;;8333975;28;20254;-64
2022/07/23 20:53:26;;;;;;;4.27;3.80;;;17.10;1.00;;;;;;8343072;28;20249;-67
2022/07/23 20:57:28;;;;;;;4.37;3.93;;;17.00;18.10;;;;;;8337575;28;20317;-65
2022/07/23 21:01:28;;;;;;;4.80;4.30;;;16.90;42.20;;;;;;8326481;28;20190;-63
2022/07/23 21:05:29;;;;;;;4.43;4.03;;;16.80;82.90;;;;;;8325633;28;20221;-63